createdAt,value
2023-01-26T00:01:55.564Z,8.57
2023-01-26T00:04:29.869Z,9.20
2023-01-26T00:07:03.974Z,9.05
2023-01-26T00:09:39.314Z,9.88
2023-01-26T00:12:16.897Z,8.85
2023-01-26T00:14:54.498Z,8.75
2023-01-26T00:17:32.039Z,9.02
2023-01-26T00:20:07.068Z,8.45
2023-01-26T00:22:42.111Z,8.35
2023-01-26T00:25:16.610Z,8.65
2023-01-26T00:27:54.307Z,8.70
2023-01-26T00:30:30.483Z,7.70
2023-01-26T00:33:04.985Z,7.85
2023-01-26T00:35:39.224Z,8.13
2023-01-26T00:38:14.045Z,8.38
2023-01-26T00:40:49.805Z,8.73
2023-01-26T00:43:26.825Z,7.80
2023-01-26T00:46:01.984Z,8.15
2023-01-26T00:48:37.953Z,7.50
2023-01-26T00:51:15.531Z,8.82
2023-01-26T00:53:50.026Z,7.63
2023-01-26T00:56:29.683Z,8.20
2023-01-26T00:59:07.980Z,8.60
2023-01-26T01:01:44.007Z,7.80
2023-01-26T01:04:20.724Z,7.72
2023-01-26T01:06:55.303Z,7.50
2023-01-26T01:09:30.204Z,7.53
2023-01-26T01:12:05.976Z,7.07
2023-01-26T01:14:42.350Z,6.38
2023-01-26T01:17:17.368Z,6.88
2023-01-26T01:19:52.492Z,5.97
2023-01-26T01:22:29.714Z,6.20
2023-01-26T01:25:04.417Z,6.10
2023-01-26T01:27:38.297Z,6.13
2023-01-26T01:30:16.092Z,6.30
2023-01-26T01:32:53.262Z,6.05
2023-01-26T01:35:27.799Z,5.88
2023-01-26T01:38:02.132Z,6.97
2023-01-26T01:40:36.609Z,6.82
2023-01-26T01:43:15.780Z,6.57
2023-01-26T01:45:52.840Z,5.85
2023-01-26T01:48:32.037Z,5.95
2023-01-26T01:51:09.666Z,5.30
2023-01-26T01:53:46.700Z,4.70
2023-01-26T01:56:29.691Z,5.22
2023-01-26T01:59:06.246Z,4.88
2023-01-26T02:01:44.049Z,4.35
2023-01-26T02:04:23.229Z,4.78
2023-01-26T02:07:02.859Z,4.55
2023-01-26T02:09:54.619Z,4.50
2023-01-26T02:12:31.855Z,5.07
2023-01-26T02:15:09.240Z,4.78
2023-01-26T02:17:49.025Z,4.88
2023-01-26T02:20:30.360Z,4.97
2023-01-26T02:23:08.559Z,4.90
2023-01-26T02:25:45.853Z,4.82
2023-01-26T02:28:22.777Z,5.00
2023-01-26T02:30:58.794Z,5.63
2023-01-26T02:33:33.843Z,5.28
2023-01-26T02:36:12.397Z,5.75
2023-01-26T02:38:48.746Z,5.70
2023-01-26T02:41:46.245Z,6.22
2023-01-26T02:44:21.297Z,6.30
2023-01-26T02:46:56.559Z,6.32
2023-01-26T02:49:46.929Z,6.60
2023-01-26T02:52:24.044Z,6.30
2023-01-26T02:55:31.220Z,6.45
2023-01-26T02:58:07.499Z,6.43
2023-01-26T03:00:44.319Z,6.88
2023-01-26T03:03:19.990Z,6.72
2023-01-26T03:05:54.247Z,6.15
2023-01-26T03:08:33.134Z,6.60
2023-01-26T03:11:08.279Z,6.28
2023-01-26T03:13:43.714Z,6.65
2023-01-26T03:16:20.788Z,6.03
2023-01-26T03:19:13.096Z,7.20
2023-01-26T03:22:07.679Z,6.93
2023-01-26T03:24:58.708Z,7.95
2023-01-26T03:27:35.680Z,8.38
2023-01-26T03:30:14.921Z,7.97
2023-01-26T03:32:56.154Z,9.20
2023-01-26T03:35:34.229Z,9.20
2023-01-26T03:38:09.552Z,9.68
2023-01-26T03:41:11.425Z,9.52
2023-01-26T03:44:02.380Z,9.57
2023-01-26T03:46:54.901Z,8.80
2023-01-26T03:49:51.710Z,8.48
2023-01-26T03:52:45.858Z,6.60
2023-01-26T03:55:40.452Z,6.68
2023-01-26T03:58:14.743Z,6.80
2023-01-26T04:00:49.660Z,7.13
2023-01-26T04:03:40.745Z,6.97
2023-01-26T04:06:33.081Z,6.97
2023-01-26T04:09:07.388Z,6.95
2023-01-26T04:11:42.507Z,6.65
2023-01-26T04:14:34.457Z,7.13
2023-01-26T04:17:44.130Z,7.35
2023-01-26T04:20:36.194Z,7.43
2023-01-26T04:23:12.743Z,9.05
2023-01-26T04:25:48.417Z,8.38
2023-01-26T04:28:23.973Z,8.48
2023-01-26T04:30:58.362Z,8.65
2023-01-26T04:33:36.062Z,8.30
2023-01-26T04:36:12.223Z,13.93
2023-01-26T04:38:53.549Z,11.15
2023-01-26T04:41:32.714Z,11.55
2023-01-26T04:44:15.590Z,8.40
2023-01-26T04:46:53.725Z,8.88
2023-01-26T04:49:27.879Z,8.45
2023-01-26T04:52:05.749Z,9.73
2023-01-26T04:54:43.363Z,9.55
2023-01-26T04:57:18.659Z,8.98
2023-01-26T04:59:55.793Z,9.98
2023-01-26T05:02:29.967Z,8.38
2023-01-26T05:05:05.098Z,9.93
2023-01-26T05:07:41.021Z,10.18
2023-01-26T05:10:18.618Z,8.70
2023-01-26T05:13:11.458Z,9.57
2023-01-26T05:16:02.711Z,8.70
2023-01-26T05:19:00.600Z,8.23
2023-01-26T05:21:54.733Z,8.18
2023-01-26T05:24:29.542Z,8.05
2023-01-26T05:27:28.304Z,9.65
2023-01-26T05:30:14.365Z,10.15
2023-01-26T05:32:49.382Z,10.27
2023-01-26T05:35:24.077Z,10.55
2023-01-26T05:37:59.996Z,12.57
2023-01-26T05:40:38.716Z,12.55
2023-01-26T05:43:17.099Z,13.52
2023-01-26T05:45:59.493Z,14.05
2023-01-26T05:48:35.407Z,15.65
2023-01-26T05:51:10.621Z,15.82
2023-01-26T05:53:47.103Z,16.35
2023-01-26T05:56:24.851Z,17.35
2023-01-26T05:59:07.420Z,17.45
2023-01-26T06:01:48.394Z,17.30
2023-01-26T06:04:24.527Z,18.52
2023-01-26T06:07:02.271Z,18.08
2023-01-26T06:09:45.095Z,17.10
2023-01-26T06:12:33.132Z,17.27
2023-01-26T06:15:18.596Z,17.40
2023-01-26T06:17:55.091Z,17.38
2023-01-26T06:20:32.259Z,16.25
2023-01-26T06:23:13.706Z,16.13
2023-01-26T06:25:54.399Z,16.88
2023-01-26T06:28:29.350Z,16.20
2023-01-26T06:31:09.539Z,17.25
2023-01-26T06:33:45.971Z,15.98
2023-01-26T06:36:23.138Z,15.57
2023-01-26T06:39:00.715Z,14.18
2023-01-26T06:41:39.659Z,13.88
2023-01-26T06:44:18.756Z,13.63
2023-01-26T06:46:55.872Z,12.35
2023-01-26T06:49:31.559Z,11.18
2023-01-26T06:52:09.991Z,11.55
2023-01-26T06:54:57.050Z,10.65
2023-01-26T06:57:54.463Z,10.45
2023-01-26T07:00:51.059Z,9.40
2023-01-26T07:03:44.282Z,10.23
2023-01-26T07:06:26.582Z,8.00
2023-01-26T07:09:06.901Z,8.30
2023-01-26T07:11:42.373Z,8.63
2023-01-26T07:14:17.895Z,7.97
2023-01-26T07:16:52.860Z,8.02
2023-01-26T07:19:35.467Z,7.18
2023-01-26T07:22:10.375Z,7.07
2023-01-26T07:24:45.411Z,6.93
2023-01-26T07:27:20.880Z,6.43
2023-01-26T07:29:55.694Z,6.30
2023-01-26T07:32:30.450Z,5.75
2023-01-26T07:35:07.243Z,5.80
2023-01-26T07:37:42.592Z,5.90
2023-01-26T07:40:17.475Z,5.47
2023-01-26T07:42:53.207Z,5.60
2023-01-26T07:45:55.146Z,5.38
2023-01-26T07:48:31.437Z,5.18
2023-01-26T07:51:08.767Z,5.00
2023-01-26T07:53:45.340Z,4.70
2023-01-26T07:56:21.127Z,5.53
2023-01-26T07:58:57.690Z,5.07
2023-01-26T08:01:32.129Z,5.00
2023-01-26T08:04:09.063Z,5.35
2023-01-26T08:06:45.751Z,5.07
2023-01-26T08:09:20.592Z,4.70
2023-01-26T08:11:54.723Z,4.55
2023-01-26T08:14:45.205Z,4.40
2023-01-26T08:17:20.638Z,5.65
2023-01-26T08:19:56.387Z,4.55
2023-01-26T08:22:33.074Z,4.68
2023-01-26T08:25:08.171Z,6.68
2023-01-26T08:27:43.322Z,7.43
2023-01-26T08:30:20.310Z,4.10
2023-01-26T08:32:55.884Z,4.10
2023-01-26T08:35:41.758Z,4.03
2023-01-26T08:38:18.602Z,4.10
2023-01-26T08:40:57.694Z,4.50
2023-01-26T08:43:32.272Z,4.47
2023-01-26T08:46:20.528Z,3.78
2023-01-26T08:48:54.772Z,4.10
2023-01-26T08:51:32.820Z,4.05
2023-01-26T08:54:22.854Z,4.50
2023-01-26T08:56:57.828Z,4.80
2023-01-26T08:59:32.982Z,4.95
2023-01-26T09:02:14.553Z,5.25
2023-01-26T09:05:01.839Z,5.63
2023-01-26T09:07:37.180Z,6.35
2023-01-26T09:10:17.079Z,6.80
2023-01-26T09:12:52.034Z,6.70
2023-01-26T09:15:26.506Z,6.65
2023-01-26T09:18:02.004Z,6.72
2023-01-26T09:20:36.554Z,7.85
2023-01-26T09:23:14.813Z,7.20
2023-01-26T09:25:51.263Z,7.68
2023-01-26T09:28:26.772Z,8.32
2023-01-26T09:31:01.650Z,7.22
2023-01-26T09:33:37.303Z,8.02
2023-01-26T09:36:11.779Z,7.30
2023-01-26T09:38:49.988Z,7.78
2023-01-26T09:41:51.675Z,7.25
2023-01-26T09:44:31.236Z,7.25
2023-01-26T09:47:12.431Z,7.35
2023-01-26T09:49:54.989Z,7.00
2023-01-26T09:52:32.281Z,7.18
2023-01-26T09:55:09.513Z,6.85
2023-01-26T09:57:50.255Z,7.05
2023-01-26T10:00:28.051Z,7.03
2023-01-26T10:03:10.148Z,7.05
2023-01-26T10:05:56.908Z,7.03
2023-01-26T10:08:49.702Z,6.82
2023-01-26T10:11:26.516Z,6.72
2023-01-26T10:14:02.780Z,7.10
2023-01-26T10:16:41.028Z,6.40
2023-01-26T10:19:20.204Z,6.32
2023-01-26T10:21:58.926Z,6.70
2023-01-26T10:24:33.234Z,7.05
2023-01-26T10:27:56.696Z,9.35
2023-01-26T10:30:31.696Z,9.18
2023-01-26T10:33:07.924Z,10.38
2023-01-26T10:35:42.562Z,10.10
2023-01-26T10:38:33.028Z,10.30
2023-01-26T10:41:09.055Z,11.05
2023-01-26T10:43:46.433Z,10.00
2023-01-26T10:46:29.393Z,10.00
2023-01-26T10:49:06.240Z,10.95
2023-01-26T10:51:42.616Z,10.52
2023-01-26T10:54:25.117Z,10.68
2023-01-26T10:57:01.310Z,10.02
2023-01-26T10:59:37.730Z,9.23
2023-01-26T11:02:26.235Z,9.18
2023-01-26T11:05:24.224Z,8.88
2023-01-26T11:08:01.874Z,9.05
2023-01-26T11:10:58.998Z,8.68
2023-01-26T11:13:34.175Z,9.43
2023-01-26T11:16:10.708Z,9.27
2023-01-26T11:19:13.091Z,8.45
2023-01-26T11:21:51.532Z,9.77
2023-01-26T11:24:31.643Z,9.75
2023-01-26T11:27:34.510Z,9.95
2023-01-26T11:30:34.335Z,9.65
2023-01-26T11:33:12.259Z,9.18
2023-01-26T11:42:23.798Z,10.85
2023-01-26T11:45:18.108Z,9.95
2023-01-26T11:47:59.526Z,9.32
2023-01-26T11:50:40.204Z,9.43
2023-01-26T11:53:30.728Z,8.82
2023-01-26T11:56:20.281Z,9.30
2023-01-26T11:59:01.971Z,9.52
2023-01-26T12:01:38.714Z,9.15
2023-01-26T12:04:17.659Z,10.18
2023-01-26T12:06:55.938Z,8.73
2023-01-26T12:09:35.966Z,9.35
2023-01-26T12:12:41.548Z,9.30
2023-01-26T12:15:45.094Z,8.45
2023-01-26T12:18:42.137Z,9.30
2023-01-26T12:22:10.918Z,8.15
2023-01-26T12:25:16.178Z,8.18
2023-01-26T12:27:45.916Z,8.77
2023-01-26T12:30:29.018Z,8.40
2023-01-26T12:33:03.291Z,8.55
2023-01-26T12:36:20.661Z,8.35
2023-01-26T12:39:01.955Z,8.23
2023-01-26T12:41:50.119Z,8.52
2023-01-26T12:44:28.950Z,8.48
2023-01-26T12:47:14.942Z,7.75
2023-01-26T12:49:51.793Z,8.13
2023-01-26T12:52:32.111Z,7.28
2023-01-26T12:55:10.414Z,7.70
2023-01-26T12:57:50.624Z,6.88
2023-01-26T13:00:26.190Z,8.00
2023-01-26T13:03:03.896Z,6.93
2023-01-26T13:05:39.873Z,7.25
2023-01-26T13:09:04.674Z,7.63
2023-01-26T13:12:03.846Z,7.03
2023-01-26T13:14:42.772Z,7.75
2023-01-26T13:17:38.673Z,7.53
2023-01-26T13:20:29.168Z,7.60
2023-01-26T13:27:05.527Z,7.55
2023-01-26T13:29:58.516Z,7.60
2023-01-26T13:32:56.717Z,7.45
2023-01-26T13:35:31.517Z,7.05
2023-01-26T13:38:09.111Z,6.65
2023-01-26T13:41:08.804Z,7.25
2023-01-26T13:43:47.075Z,7.65
2023-01-26T13:46:31.245Z,6.75
2023-01-26T13:49:15.408Z,6.82
2023-01-26T13:52:18.563Z,7.20
2023-01-26T13:55:00.630Z,6.68
2023-01-26T13:57:36.790Z,6.75
2023-01-26T14:00:16.044Z,6.55
2023-01-26T14:02:55.615Z,6.28
2023-01-26T14:05:30.653Z,6.22
2023-01-26T14:08:34.368Z,6.30
2023-01-26T14:11:11.063Z,6.18
2023-01-26T14:13:49.148Z,6.53
2023-01-26T14:16:35.534Z,7.07
2023-01-26T14:19:20.354Z,6.30
2023-01-26T14:21:56.877Z,6.70
2023-01-26T14:24:32.076Z,6.25
2023-01-26T14:27:07.665Z,6.43
2023-01-26T14:29:44.099Z,6.53
2023-01-26T14:32:20.579Z,6.38
2023-01-26T14:35:00.453Z,6.15
2023-01-26T14:37:35.321Z,5.88
2023-01-26T14:40:16.964Z,5.53
2023-01-26T14:42:56.378Z,5.68
2023-01-26T14:45:50.976Z,5.70
2023-01-26T14:48:46.378Z,5.57
2023-01-26T14:51:29.844Z,6.00
2023-01-26T14:54:05.857Z,5.95
2023-01-26T15:00:25.672Z,5.85
2023-01-26T15:03:00.818Z,6.00
2023-01-26T15:05:37.656Z,5.82
2023-01-26T15:08:24.105Z,5.57
2023-01-26T15:11:21.026Z,5.53
2023-01-26T15:14:02.561Z,5.15
2023-01-26T15:17:04.402Z,5.30
2023-01-26T15:20:02.161Z,5.07
2023-01-26T15:22:40.114Z,5.57
2023-01-26T15:25:25.176Z,5.28
2023-01-26T15:28:04.502Z,4.82
2023-01-26T15:30:46.272Z,5.72
2023-01-26T15:33:46.841Z,4.90
2023-01-26T15:36:32.720Z,5.10
2023-01-26T15:39:26.891Z,4.88
2023-01-26T15:42:18.854Z,5.15
2023-01-26T15:45:21.240Z,5.00
2023-01-26T15:47:55.563Z,4.80
2023-01-26T15:50:30.907Z,5.32
2023-01-26T15:53:05.144Z,5.30
2023-01-26T15:55:42.977Z,5.50
2023-01-26T15:58:20.930Z,5.18
2023-01-26T16:00:57.966Z,5.72
2023-01-26T16:03:40.037Z,5.20
2023-01-26T16:06:41.607Z,5.38
2023-01-26T16:09:33.850Z,5.03
2023-01-26T16:12:33.463Z,5.38
2023-01-26T16:15:23.276Z,4.95
2023-01-26T16:17:59.972Z,5.18
2023-01-26T16:20:36.442Z,5.18
2023-01-26T16:23:20.299Z,5.05
2023-01-26T16:26:27.202Z,4.70
2023-01-26T16:29:03.236Z,5.35
2023-01-26T16:31:43.013Z,5.13
2023-01-26T16:34:18.732Z,5.32
2023-01-26T16:36:57.464Z,4.63
2023-01-26T16:39:31.977Z,5.22
2023-01-26T16:42:06.259Z,5.28
2023-01-26T16:45:15.694Z,5.05
2023-01-26T16:47:55.879Z,5.07
2023-01-26T16:50:31.652Z,4.70
2023-01-26T16:56:27.385Z,5.13
2023-01-26T16:59:05.730Z,4.88
2023-01-26T17:01:42.065Z,4.68
2023-01-26T17:04:19.260Z,4.80
2023-01-26T17:06:53.973Z,4.20
2023-01-26T17:09:59.284Z,4.50
2023-01-26T17:12:42.681Z,4.50
2023-01-26T17:15:18.565Z,4.35
2023-01-26T17:17:54.153Z,4.22
2023-01-26T17:20:31.716Z,3.97
2023-01-26T17:23:05.983Z,4.30
2023-01-26T17:26:07.642Z,4.10
2023-01-26T17:28:41.963Z,4.30
2023-01-26T17:31:21.278Z,3.97
2023-01-26T17:33:57.260Z,3.88
2023-01-26T17:36:35.279Z,4.25
2023-01-26T17:39:11.284Z,4.47
2023-01-26T17:41:46.801Z,4.32
2023-01-26T17:44:31.934Z,4.35
2023-01-26T17:47:06.716Z,3.80
2023-01-26T17:49:42.362Z,4.18
2023-01-26T17:52:21.538Z,4.43
2023-01-26T17:54:56.942Z,4.40
2023-01-26T17:57:31.219Z,4.80
2023-01-26T18:00:06.228Z,4.65
2023-01-26T18:02:43.581Z,4.45
2023-01-26T18:05:22.529Z,4.70
2023-01-26T18:07:58.588Z,4.30
2023-01-26T18:10:32.907Z,4.47
2023-01-26T18:13:08.131Z,4.57
2023-01-26T18:15:43.062Z,4.18
2023-01-26T18:19:11.384Z,4.30
2023-01-26T18:21:47.844Z,4.07
2023-01-26T18:24:28.328Z,4.57
2023-01-26T18:27:03.300Z,4.70
2023-01-26T18:29:38.340Z,4.53
2023-01-26T18:32:13.911Z,4.53
2023-01-26T18:34:50.384Z,4.60
2023-01-26T18:37:28.642Z,4.45
2023-01-26T18:43:34.458Z,4.55
2023-01-26T18:46:11.194Z,4.40
2023-01-26T18:48:47.146Z,4.60
2023-01-26T18:51:28.044Z,4.80
2023-01-26T18:54:05.795Z,4.43
2023-01-26T18:56:42.259Z,4.50
2023-01-26T18:59:37.614Z,4.28
2023-01-26T19:02:18.816Z,4.32
2023-01-26T19:04:55.470Z,4.50
2023-01-26T19:07:32.681Z,4.22
2023-01-26T19:10:12.382Z,4.03
2023-01-26T19:12:49.664Z,4.32
2023-01-26T19:15:25.379Z,4.10
2023-01-26T19:18:03.842Z,4.22
2023-01-26T19:21:08.647Z,4.18
2023-01-26T19:23:56.899Z,4.00
2023-01-26T19:26:36.483Z,3.95
2023-01-26T19:29:13.950Z,3.80
2023-01-26T19:31:49.046Z,4.30
2023-01-26T19:34:37.839Z,3.78
2023-01-26T19:37:42.577Z,3.90
2023-01-26T19:40:28.189Z,3.97
2023-01-26T19:43:03.444Z,3.97
2023-01-26T19:45:40.092Z,3.70
2023-01-26T19:48:22.551Z,3.75
2023-01-26T19:51:09.831Z,4.28
2023-01-26T19:56:49.468Z,3.85
2023-01-26T19:59:24.472Z,3.50
2023-01-26T20:02:00.697Z,3.83
2023-01-26T20:04:35.152Z,3.33
2023-01-26T20:07:11.701Z,3.83
2023-01-26T20:09:46.536Z,3.67
2023-01-26T20:12:23.109Z,3.95
2023-01-26T20:15:00.613Z,3.35
2023-01-26T20:17:37.273Z,3.47
2023-01-26T20:20:15.507Z,3.88
2023-01-26T20:22:55.410Z,4.10
2023-01-26T20:25:30.265Z,4.13
2023-01-26T20:28:04.919Z,3.80
2023-01-26T20:30:42.739Z,3.75
2023-01-26T20:33:37.564Z,3.28
2023-01-26T20:36:14.075Z,3.72
2023-01-26T20:38:51.892Z,3.45
2023-01-26T20:41:43.339Z,3.70
2023-01-26T20:44:24.753Z,3.47
2023-01-26T20:46:58.811Z,3.35
2023-01-26T20:49:33.065Z,3.55
2023-01-26T20:52:11.515Z,3.60
2023-01-26T20:54:48.471Z,3.40
2023-01-26T20:57:24.540Z,3.53
2023-01-26T21:00:00.222Z,3.45
2023-01-26T21:02:39.533Z,3.47
2023-01-26T21:05:16.940Z,3.70
2023-01-26T21:07:54.201Z,3.15
2023-01-26T21:10:46.386Z,3.40
2023-01-26T21:13:47.973Z,3.42
2023-01-26T21:16:25.024Z,3.10
2023-01-26T21:19:02.535Z,2.75
2023-01-26T21:21:38.297Z,3.58
2023-01-26T21:24:14.124Z,2.85
2023-01-26T21:27:27.043Z,3.38
2023-01-26T21:30:01.503Z,2.97
2023-01-26T21:32:35.597Z,3.05
2023-01-26T21:35:37.314Z,2.80
2023-01-26T21:38:11.572Z,3.20
2023-01-26T21:41:04.003Z,2.88
2023-01-26T21:43:41.043Z,2.83
2023-01-26T21:46:25.224Z,2.85
2023-01-26T21:48:59.642Z,2.80
2023-01-26T21:51:51.590Z,3.10
2023-01-26T21:54:26.029Z,2.83
2023-01-26T21:57:03.379Z,3.88
2023-01-26T21:59:39.489Z,3.13
2023-01-26T22:02:16.349Z,3.00
2023-01-26T22:04:52.226Z,2.95
2023-01-26T22:07:29.666Z,2.97
2023-01-26T22:10:07.799Z,2.85
2023-01-26T22:12:44.142Z,3.22
2023-01-26T22:15:21.905Z,2.90
2023-01-26T22:17:59.997Z,2.60
2023-01-26T22:20:37.476Z,3.05
2023-01-26T22:23:17.048Z,2.60
2023-01-26T22:25:54.020Z,2.90
2023-01-26T22:28:28.478Z,2.75
2023-01-26T22:31:08.288Z,2.70
2023-01-26T22:33:43.632Z,2.58
2023-01-26T22:36:21.317Z,2.78
2023-01-26T22:38:56.251Z,2.53
2023-01-26T22:41:31.451Z,2.28
2023-01-26T22:44:46.771Z,2.40
2023-01-26T22:47:39.508Z,2.35
2023-01-26T22:50:39.306Z,2.28
2023-01-26T22:53:13.786Z,2.20
2023-01-26T22:55:49.232Z,2.33
2023-01-26T22:58:25.024Z,2.67
2023-01-26T23:01:08.288Z,2.58
2023-01-26T23:04:12.275Z,2.10
2023-01-26T23:06:49.446Z,2.38
2023-01-26T23:09:23.697Z,2.30
2023-01-26T23:12:16.336Z,2.85
2023-01-26T23:14:51.571Z,2.47
2023-01-26T23:17:30.009Z,2.20
2023-01-26T23:20:04.424Z,2.13
2023-01-26T23:22:42.162Z,2.55
2023-01-26T23:26:03.759Z,2.08
2023-01-26T23:31:57.939Z,2.05
2023-01-26T23:34:35.924Z,2.35
2023-01-26T23:37:11.548Z,2.38
2023-01-26T23:39:48.227Z,2.15
2023-01-26T23:42:23.062Z,3.20
2023-01-26T23:44:57.553Z,2.92
2023-01-26T23:47:37.695Z,2.53
2023-01-26T23:50:14.023Z,2.15
2023-01-26T23:52:51.024Z,2.60
2023-01-26T23:55:28.995Z,2.35
2023-01-26T23:58:07.008Z,2.20
